Hlavní strana
METAR-TAF:

METAR-TAF

Letiště :

Cerklje ob Krki, Slovinsko

zeměpisná šířka: 45-53-59N, zeměpisná délka: 15-30-55E, výška: 157 m

Aktuální stav počasí

Zpráva byla vytvořena před 13 minutami, v 16:00 UTC
Východoseverovýchodní vítr 5 kt
Teplota 7°C
Vlhkost vzduchu 66%
Tlak 1029 hPa
Viditelnost 10 km a více

METAR: LJCE 161600Z AUTO 06005KT 9999 NCD 07/01 Q1029

Čas: 17:13 (16:13 UTC)

Předpověď počasí

Zpráva byla vytvořena před 2 hodinami a 13 minutami, v 14:00 UTC
Předpověď platná od 16 v 15 UTC do 16 v 24 UTC
Východoseverovýchodní vítr 5 kt
Viditelnost 10 km a více
Skoro jasno ve výšce 3500 ft
Pravděpodobnost 40% :
Dočasný
od 16 v 15 UTC do 16 v 24 UTC
Oblačno až skoro zataženo ve výšce 3500 ft

TAF: LJCE 161400Z 1615/1624 06005KT 9999 FEW035 PROB40 TEMPO 1615/1624 BKN035

Stav a předpovědi počasí z více než 4 000 letišť (zprávy METAR a TAF).

Červené a žluté tečky na mapě představují dostupné meteorologické stanice.

Když kurzor umístíte na tečku, zobrazí se název stanice.

Pak kliknutím zobrazíte stav a předpověď počasí.

Chcete-li změnit mapu, kliknutím na zelené tlačítko se znaménkem +mapu přiblížíte, kliknutím na zelené tlačítko se znaménkem – mapu oddálíte a kliknutím na zelené šipky přejdete na sousední mapy.


METAR-TAF: